createdAt,value
2022-11-30T00:01:31.515Z,97.50
2022-11-30T00:04:33.764Z,97.54
2022-11-30T00:07:36.082Z,97.73
2022-11-30T00:10:39.654Z,97.88
2022-11-30T00:13:42.558Z,98.25
2022-11-30T00:16:44.852Z,98.15
2022-11-30T00:19:47.132Z,98.18
2022-11-30T00:22:49.361Z,97.90
2022-11-30T00:25:51.605Z,97.85
2022-11-30T00:28:54.012Z,98.08
2022-11-30T00:31:56.204Z,98.40
2022-11-30T00:34:58.454Z,98.48
2022-11-30T00:38:03.221Z,98.16
2022-11-30T00:41:05.772Z,98.34
2022-11-30T00:44:07.959Z,98.10
2022-11-30T00:47:10.302Z,98.35
2022-11-30T00:50:12.690Z,98.39
2022-11-30T00:53:16.270Z,98.31
2022-11-30T00:56:18.604Z,97.79
2022-11-30T00:59:20.850Z,97.84
2022-11-30T01:02:23.128Z,97.60
2022-11-30T01:05:26.044Z,97.69
2022-11-30T01:08:28.640Z,97.67
2022-11-30T01:11:31.707Z,97.57
2022-11-30T01:14:33.956Z,97.88
2022-11-30T01:17:36.554Z,98.52
2022-11-30T01:20:43.108Z,98.09
2022-11-30T01:23:45.731Z,98.37
2022-11-30T01:26:48.002Z,98.84
2022-11-30T01:29:50.247Z,99.00
2022-11-30T01:32:59.445Z,98.52
2022-11-30T01:36:06.828Z,98.42
2022-11-30T01:39:16.464Z,98.53
2022-11-30T01:42:20.074Z,98.26
2022-11-30T01:45:28.404Z,98.63
2022-11-30T01:48:31.021Z,98.43
2022-11-30T01:51:54.492Z,98.56
2022-11-30T01:55:03.802Z,99.06
2022-11-30T01:58:11.511Z,99.20
2022-11-30T02:01:13.798Z,99.20
2022-11-30T02:04:23.521Z,98.96
2022-11-30T02:07:26.196Z,98.88
2022-11-30T02:10:32.042Z,99.26
2022-11-30T02:14:03.767Z,98.96
2022-11-30T02:17:42.106Z,98.63
2022-11-30T02:20:53.383Z,99.22
2022-11-30T02:23:55.566Z,98.84
2022-11-30T02:27:36.291Z,98.69
2022-11-30T02:30:43.955Z,98.68
2022-11-30T02:33:49.101Z,98.88
2022-11-30T02:36:52.880Z,98.94
2022-11-30T02:39:55.135Z,99.66
2022-11-30T02:43:00.300Z,99.94
2022-11-30T02:46:31.356Z,99.90
2022-11-30T02:49:37.836Z,99.99
2022-11-30T02:52:40.588Z,99.84
2022-11-30T02:55:43.008Z,99.53
2022-11-30T02:58:45.480Z,99.51
2022-11-30T03:01:47.817Z,99.04
2022-11-30T03:04:50.172Z,98.53
2022-11-30T03:07:52.504Z,98.47
2022-11-30T03:10:54.792Z,98.67
2022-11-30T03:13:57.023Z,99.16
2022-11-30T03:16:59.243Z,99.37
2022-11-30T03:20:02.111Z,99.68
2022-11-30T03:23:04.362Z,99.09
2022-11-30T03:26:08.278Z,99.08
2022-11-30T03:29:10.611Z,99.07
2022-11-30T03:32:12.815Z,99.36
2022-11-30T03:35:15.094Z,99.50
2022-11-30T03:38:17.371Z,99.57
2022-11-30T03:41:19.626Z,99.55
2022-11-30T03:44:21.915Z,99.58
2022-11-30T03:47:24.186Z,99.48
2022-11-30T03:50:26.432Z,99.40
2022-11-30T03:53:28.736Z,99.32
2022-11-30T03:56:31.090Z,99.15
2022-11-30T03:59:33.397Z,99.07
2022-11-30T04:02:38.946Z,99.22
2022-11-30T04:05:43.941Z,99.30
2022-11-30T04:08:46.801Z,99.09
2022-11-30T04:11:49.035Z,99.11
2022-11-30T04:14:51.260Z,99.15
2022-11-30T04:17:53.517Z,98.83
2022-11-30T04:20:57.490Z,98.79
2022-11-30T04:23:59.696Z,98.91
2022-11-30T04:27:01.878Z,98.55
2022-11-30T04:30:04.417Z,99.08
2022-11-30T04:33:06.981Z,98.99
2022-11-30T04:36:18.842Z,98.60
2022-11-30T04:39:21.079Z,99.27
2022-11-30T04:42:23.343Z,98.93
2022-11-30T04:45:25.536Z,99.07
2022-11-30T04:48:27.736Z,99.15
2022-11-30T04:51:29.963Z,99.15
2022-11-30T04:54:32.261Z,99.06
2022-11-30T04:57:34.490Z,98.93
2022-11-30T05:00:37.427Z,98.73
2022-11-30T05:03:46.669Z,98.57
2022-11-30T05:06:48.919Z,98.76
2022-11-30T05:09:51.141Z,98.78
2022-11-30T05:12:53.828Z,99.01
2022-11-30T05:15:56.148Z,99.14
2022-11-30T05:18:58.445Z,98.81
2022-11-30T05:22:00.997Z,98.91
2022-11-30T05:25:04.115Z,98.98
2022-11-30T05:28:06.325Z,98.64
2022-11-30T05:31:08.614Z,98.71
2022-11-30T05:34:10.859Z,98.28
2022-11-30T05:37:13.105Z,98.39
2022-11-30T05:40:15.443Z,98.61
2022-11-30T05:43:18.905Z,99.03
2022-11-30T05:46:21.150Z,98.89
2022-11-30T05:49:23.479Z,98.63
2022-11-30T05:52:25.686Z,98.45
2022-11-30T05:55:29.579Z,97.71
2022-11-30T05:58:31.991Z,97.48
2022-11-30T06:01:34.398Z,98.02
2022-11-30T06:04:36.886Z,97.99
2022-11-30T06:07:39.938Z,97.66
2022-11-30T06:10:42.168Z,97.55
2022-11-30T06:13:44.526Z,98.02
2022-11-30T06:16:46.972Z,98.05
2022-11-30T06:19:49.327Z,98.01
2022-11-30T06:22:51.859Z,98.27
2022-11-30T06:25:54.179Z,98.22
2022-11-30T06:28:56.561Z,98.71
2022-11-30T06:31:58.956Z,98.21
2022-11-30T06:35:01.625Z,98.11
2022-11-30T06:38:04.085Z,97.98
2022-11-30T06:41:09.046Z,97.93
2022-11-30T06:44:11.759Z,97.95
2022-11-30T06:47:16.848Z,98.28
2022-11-30T06:50:19.169Z,97.87
2022-11-30T06:53:21.599Z,97.97
2022-11-30T06:56:23.971Z,97.78
2022-11-30T06:59:26.345Z,97.69
2022-11-30T07:02:28.823Z,97.13
2022-11-30T07:05:39.855Z,96.95
2022-11-30T07:08:43.772Z,97.64
2022-11-30T07:11:46.300Z,97.88
2022-11-30T07:14:52.435Z,97.73
2022-11-30T07:17:54.829Z,97.23
2022-11-30T07:21:00.384Z,97.27
2022-11-30T07:24:21.497Z,97.16
2022-11-30T07:27:26.687Z,96.84
2022-11-30T07:30:31.620Z,96.82
2022-11-30T07:33:33.944Z,96.59
2022-11-30T07:36:37.007Z,96.70
2022-11-30T07:39:39.360Z,97.01
2022-11-30T07:42:45.544Z,97.71
2022-11-30T07:45:55.209Z,97.80
2022-11-30T07:48:57.471Z,95.41
2022-11-30T07:51:59.752Z,95.46
2022-11-30T07:55:02.009Z,95.70
2022-11-30T07:58:04.387Z,95.59
2022-11-30T08:01:12.323Z,95.82
2022-11-30T08:04:15.077Z,95.48
2022-11-30T08:07:17.598Z,96.13
2022-11-30T08:10:26.072Z,96.93
2022-11-30T08:13:29.702Z,96.01
2022-11-30T08:16:37.952Z,95.73
2022-11-30T08:19:42.985Z,95.55
2022-11-30T08:22:46.248Z,96.37
2022-11-30T08:25:48.456Z,96.02
2022-11-30T08:28:52.213Z,96.58
2022-11-30T08:31:55.095Z,96.13
2022-11-30T08:34:57.446Z,96.28
2022-11-30T08:37:59.714Z,96.21
2022-11-30T08:41:02.405Z,96.12
2022-11-30T08:44:05.147Z,96.16
2022-11-30T08:47:07.475Z,95.72
2022-11-30T08:50:10.154Z,95.85
2022-11-30T08:53:12.357Z,95.70
2022-11-30T08:56:25.711Z,95.92
2022-11-30T08:59:30.580Z,95.53
2022-11-30T09:02:34.130Z,95.42
2022-11-30T09:05:37.794Z,95.43
2022-11-30T09:08:41.629Z,96.01
2022-11-30T09:11:43.909Z,95.59
2022-11-30T09:14:53.956Z,94.98
2022-11-30T09:18:02.781Z,94.24
2022-11-30T09:21:12.859Z,94.01
2022-11-30T09:24:15.157Z,94.42
2022-11-30T09:27:17.722Z,93.97
2022-11-30T09:30:20.204Z,94.67
2022-11-30T09:33:23.718Z,94.69
2022-11-30T09:36:27.283Z,94.53
2022-11-30T09:39:29.614Z,94.39
2022-11-30T09:43:04.478Z,94.84
2022-11-30T09:46:09.564Z,94.94
2022-11-30T09:49:39.321Z,94.49
2022-11-30T09:52:46.085Z,93.84
2022-11-30T09:55:48.472Z,94.44
2022-11-30T09:59:07.640Z,93.70
2022-11-30T10:02:17.444Z,94.29
2022-11-30T10:05:22.267Z,94.26
2022-11-30T10:08:38.911Z,94.01
2022-11-30T10:11:49.918Z,94.34
2022-11-30T10:15:48.519Z,93.93
2022-11-30T10:18:56.884Z,94.82
2022-11-30T10:22:22.570Z,94.73
2022-11-30T10:25:48.204Z,94.82
2022-11-30T10:28:52.885Z,94.92
2022-11-30T10:31:59.994Z,93.91
2022-11-30T10:35:15.973Z,94.17
2022-11-30T10:38:24.348Z,93.52
2022-11-30T10:41:39.504Z,93.25
2022-11-30T10:44:46.064Z,92.82
2022-11-30T10:48:04.327Z,92.00
2022-11-30T10:51:07.194Z,92.13
2022-11-30T10:54:16.906Z,91.95
2022-11-30T10:57:19.114Z,92.39
2022-11-30T11:00:21.870Z,91.55
2022-11-30T11:03:25.698Z,91.45
2022-11-30T11:06:28.090Z,90.92
2022-11-30T11:09:38.639Z,91.26
2022-11-30T11:12:47.822Z,91.13
2022-11-30T11:15:58.973Z,90.85
2022-11-30T11:19:01.264Z,91.45
2022-11-30T11:22:24.886Z,92.28
2022-11-30T11:25:37.299Z,92.50
2022-11-30T11:28:45.106Z,92.21
2022-11-30T11:31:47.511Z,92.09
2022-11-30T11:34:51.500Z,91.31
2022-11-30T11:37:53.910Z,92.06
2022-11-30T11:40:59.258Z,91.73
2022-11-30T11:44:04.098Z,91.21
2022-11-30T11:47:07.765Z,91.05
2022-11-30T11:50:13.070Z,91.15
2022-11-30T11:53:25.598Z,91.67
2022-11-30T11:56:32.941Z,92.48
2022-11-30T11:59:47.360Z,92.97
2022-11-30T12:02:57.771Z,92.85
2022-11-30T12:06:10.029Z,92.88
2022-11-30T12:09:39.777Z,93.22
2022-11-30T12:12:47.473Z,92.87
2022-11-30T12:16:05.960Z,92.37
2022-11-30T12:19:21.864Z,92.64
2022-11-30T12:22:48.218Z,92.89
2022-11-30T12:26:04.330Z,92.31
2022-11-30T12:29:09.954Z,91.86
2022-11-30T12:32:49.724Z,93.05
2022-11-30T12:35:57.727Z,92.44
2022-11-30T12:39:45.431Z,93.05
2022-11-30T12:43:21.388Z,93.54
2022-11-30T12:46:46.589Z,93.03
2022-11-30T12:50:08.539Z,93.36
2022-11-30T12:53:19.863Z,93.12
2022-11-30T12:56:56.702Z,93.64
2022-11-30T13:00:17.288Z,92.95
2022-11-30T13:03:40.239Z,93.22
2022-11-30T13:07:19.268Z,93.89
2022-11-30T13:10:24.424Z,93.82
2022-11-30T13:13:30.367Z,94.53
2022-11-30T13:16:34.502Z,94.17
2022-11-30T13:20:16.889Z,94.60
2022-11-30T13:23:41.728Z,94.89
2022-11-30T13:27:39.411Z,95.12
2022-11-30T13:30:53.703Z,95.14
2022-11-30T13:33:55.950Z,95.34
2022-11-30T13:37:07.670Z,95.30
2022-11-30T13:40:22.523Z,94.81
2022-11-30T13:43:27.640Z,94.95
2022-11-30T13:46:30.371Z,94.62
2022-11-30T13:49:35.761Z,95.45
2022-11-30T13:53:02.938Z,95.80
2022-11-30T13:56:17.358Z,96.06
2022-11-30T13:59:25.448Z,95.86
2022-11-30T14:02:33.820Z,95.99
2022-11-30T14:05:41.099Z,95.80
2022-11-30T14:08:43.363Z,95.59
2022-11-30T14:11:45.879Z,95.08
2022-11-30T14:14:48.530Z,94.81
2022-11-30T14:17:55.604Z,95.56
2022-11-30T14:21:13.485Z,95.91
2022-11-30T14:24:21.937Z,95.85
2022-11-30T14:27:27.319Z,96.28
2022-11-30T14:30:32.821Z,96.18
2022-11-30T14:33:55.146Z,96.09
2022-11-30T14:37:02.667Z,95.62
2022-11-30T14:40:07.052Z,95.71
2022-11-30T14:43:17.067Z,95.70
2022-11-30T14:46:19.502Z,95.19
2022-11-30T14:49:23.884Z,95.51
2022-11-30T14:52:50.807Z,95.49
2022-11-30T14:56:06.723Z,95.43
2022-11-30T14:59:41.847Z,96.14
2022-11-30T15:02:44.702Z,96.30
2022-11-30T15:05:50.104Z,96.78
2022-11-30T15:08:55.414Z,97.04
2022-11-30T15:11:58.410Z,97.14
2022-11-30T15:15:03.395Z,96.75
2022-11-30T15:18:16.305Z,96.99
2022-11-30T15:21:24.827Z,97.08
2022-11-30T15:24:29.451Z,96.81
2022-11-30T15:27:32.097Z,96.96
2022-11-30T15:30:43.000Z,96.54
2022-11-30T15:33:48.064Z,97.14
2022-11-30T15:36:54.624Z,97.59
2022-11-30T15:40:00.160Z,97.84
2022-11-30T15:43:02.870Z,97.98
2022-11-30T15:46:31.836Z,97.99
2022-11-30T15:49:36.399Z,98.14
2022-11-30T15:52:49.993Z,98.00
2022-11-30T15:55:58.036Z,97.77
2022-11-30T15:59:24.636Z,97.27
2022-11-30T16:02:37.575Z,97.83
2022-11-30T16:05:40.390Z,97.81
2022-11-30T16:08:47.600Z,97.78
2022-11-30T16:11:54.431Z,98.07
2022-11-30T16:14:57.208Z,98.03
2022-11-30T16:18:22.925Z,97.61
2022-11-30T16:21:25.400Z,97.83
2022-11-30T16:24:27.663Z,97.68
2022-11-30T16:27:30.683Z,97.77
2022-11-30T16:30:32.922Z,97.72
2022-11-30T16:33:35.255Z,98.20
2022-11-30T16:36:38.609Z,98.25
2022-11-30T16:39:40.820Z,98.14
2022-11-30T16:42:43.516Z,97.85
2022-11-30T16:45:46.859Z,97.85
2022-11-30T16:48:49.779Z,97.78
2022-11-30T16:51:52.032Z,98.04
2022-11-30T16:54:54.231Z,97.89
2022-11-30T16:57:56.507Z,98.06
2022-11-30T17:01:00.336Z,98.02
2022-11-30T17:04:12.069Z,97.79
2022-11-30T17:07:14.377Z,97.94
2022-11-30T17:10:16.893Z,97.96
2022-11-30T17:13:19.230Z,98.00
2022-11-30T17:16:21.758Z,98.10
2022-11-30T17:19:24.017Z,97.97
2022-11-30T17:22:26.294Z,98.03
2022-11-30T17:25:28.578Z,98.04
2022-11-30T17:28:30.864Z,97.70
2022-11-30T17:31:33.293Z,97.86
2022-11-30T17:34:35.492Z,97.91
2022-11-30T17:37:37.826Z,97.61
2022-11-30T17:40:42.064Z,97.91
2022-11-30T17:43:44.324Z,97.95
2022-11-30T17:46:48.436Z,98.03
2022-11-30T17:49:50.990Z,97.56
2022-11-30T17:52:53.240Z,97.41
2022-11-30T17:56:15.485Z,97.03
2022-11-30T17:59:17.761Z,97.68
2022-11-30T18:02:19.980Z,98.07
2022-11-30T18:05:22.251Z,98.41
2022-11-30T18:08:24.466Z,98.54
2022-11-30T18:11:26.829Z,98.54
2022-11-30T18:14:29.015Z,98.72
2022-11-30T18:17:32.219Z,98.29
2022-11-30T18:20:34.516Z,98.54
2022-11-30T18:23:38.087Z,98.74
2022-11-30T18:26:40.732Z,98.77
2022-11-30T18:29:42.971Z,98.95
2022-11-30T18:32:45.203Z,98.52
2022-11-30T18:35:47.507Z,98.42
2022-11-30T18:38:49.807Z,98.14
2022-11-30T18:41:52.192Z,98.62
2022-11-30T18:44:54.426Z,98.56
2022-11-30T18:47:56.667Z,98.41
2022-11-30T18:50:58.976Z,98.27
2022-11-30T18:54:06.758Z,98.22
2022-11-30T18:57:09.036Z,98.28
2022-11-30T19:00:11.698Z,98.26
2022-11-30T19:03:13.935Z,98.12
2022-11-30T19:06:16.190Z,98.19
2022-11-30T19:09:23.965Z,98.04
2022-11-30T19:12:26.188Z,98.24
2022-11-30T19:15:28.388Z,98.02
2022-11-30T19:18:30.967Z,98.12
2022-11-30T19:21:33.400Z,98.73
2022-11-30T19:24:36.139Z,99.01
2022-11-30T19:27:38.417Z,98.60
2022-11-30T19:30:40.695Z,98.52
2022-11-30T19:33:45.291Z,98.55
2022-11-30T19:36:47.564Z,98.52
2022-11-30T19:39:49.790Z,98.93
2022-11-30T19:42:52.057Z,99.05
2022-11-30T19:45:54.331Z,99.36
2022-11-30T19:48:58.108Z,99.37
2022-11-30T19:52:00.315Z,99.30
2022-11-30T19:55:02.579Z,98.62
2022-11-30T19:58:04.803Z,98.45
2022-11-30T20:01:12.397Z,98.49
2022-11-30T20:04:14.672Z,98.42
2022-11-30T20:07:16.971Z,98.57
2022-11-30T20:10:19.200Z,98.18
2022-11-30T20:13:21.662Z,98.16
2022-11-30T20:16:24.039Z,98.34
2022-11-30T20:19:26.343Z,98.31
2022-11-30T20:22:28.646Z,98.36
2022-11-30T20:25:32.139Z,98.74
2022-11-30T20:28:37.055Z,99.17
2022-11-30T20:31:39.816Z,99.33
2022-11-30T20:34:43.849Z,99.81
2022-11-30T20:37:46.279Z,99.61
2022-11-30T20:40:48.547Z,99.65
2022-11-30T20:43:51.849Z,99.56
2022-11-30T20:46:54.149Z,99.65
2022-11-30T20:49:56.349Z,99.97
2022-11-30T20:52:58.555Z,99.99
2022-11-30T20:56:00.996Z,99.99
2022-11-30T20:59:06.237Z,99.97
2022-11-30T21:02:10.179Z,99.61
2022-11-30T21:05:12.800Z,99.44
2022-11-30T21:08:15.296Z,99.49
2022-11-30T21:11:19.583Z,99.23
2022-11-30T21:14:22.218Z,99.63
2022-11-30T21:17:24.454Z,99.18
2022-11-30T21:20:26.755Z,99.33
2022-11-30T21:23:29.033Z,99.27
2022-11-30T21:26:37.357Z,99.20
2022-11-30T21:29:39.576Z,98.92
2022-11-30T21:32:41.815Z,98.94
2022-11-30T21:35:44.051Z,99.62
2022-11-30T21:38:46.288Z,99.64
2022-11-30T21:41:48.631Z,99.74
2022-11-30T21:44:51.013Z,99.76
2022-11-30T21:47:53.248Z,99.93
2022-11-30T21:51:10.567Z,99.99
2022-11-30T21:54:13.517Z,99.99
2022-11-30T21:57:15.764Z,99.99
2022-11-30T22:00:18.460Z,99.69
2022-11-30T22:03:20.897Z,99.27
2022-11-30T22:06:24.351Z,99.36
2022-11-30T22:09:26.558Z,99.73
2022-11-30T22:12:28.871Z,99.68
2022-11-30T22:15:31.115Z,99.64
2022-11-30T22:18:33.712Z,99.46
2022-11-30T22:21:36.083Z,99.33
2022-11-30T22:24:38.279Z,99.21
2022-11-30T22:27:40.603Z,99.27
2022-11-30T22:30:44.536Z,99.40
2022-11-30T22:33:47.538Z,99.32
2022-11-30T22:36:49.832Z,99.53
2022-11-30T22:39:52.084Z,99.48
2022-11-30T22:42:54.279Z,99.44
2022-11-30T22:46:03.038Z,98.89
2022-11-30T22:49:07.308Z,98.79
2022-11-30T22:52:09.607Z,98.54
2022-11-30T22:55:11.908Z,98.88
2022-11-30T22:58:14.465Z,99.03
2022-11-30T23:01:22.367Z,99.19
2022-11-30T23:04:24.634Z,99.05
2022-11-30T23:07:33.370Z,98.67
2022-11-30T23:10:38.423Z,99.22
2022-11-30T23:13:42.021Z,99.10
2022-11-30T23:16:45.098Z,98.96
2022-11-30T23:19:47.566Z,98.67
2022-11-30T23:22:49.981Z,98.77
2022-11-30T23:25:52.217Z,99.16
2022-11-30T23:28:55.800Z,99.21
2022-11-30T23:31:58.155Z,99.23
2022-11-30T23:35:00.444Z,99.31
2022-11-30T23:38:02.849Z,99.37
2022-11-30T23:41:05.219Z,99.33
2022-11-30T23:44:08.000Z,99.23
2022-11-30T23:47:13.062Z,99.31
2022-11-30T23:50:19.157Z,99.27
2022-11-30T23:53:22.195Z,99.06
2022-11-30T23:56:24.838Z,98.44
2022-11-30T23:59:27.093Z,98.02
